sensor_id;sensor_type;location;lat;lon;timestamp;P1;durP1;ratioP1;P2;durP2;ratioP2
42662;SDS011;44330;51.360;6.686;2023-04-01T00:00:54;7.22;;;1.70;;
42662;SDS011;44330;51.360;6.686;2023-04-01T00:03:21;7.38;;;1.50;;
42662;SDS011;44330;51.360;6.686;2023-04-01T00:05:48;6.70;;;1.50;;
42662;SDS011;44330;51.360;6.686;2023-04-01T00:08:14;5.75;;;2.15;;
42662;SDS011;44330;51.360;6.686;2023-04-01T00:10:40;3.60;;;1.00;;
42662;SDS011;44330;51.360;6.686;2023-04-01T00:13:05;7.20;;;1.30;;
42662;SDS011;44330;51.360;6.686;2023-04-01T00:15:31;4.45;;;1.40;;
42662;SDS011;44330;51.360;6.686;2023-04-01T00:17:57;9.07;;;1.80;;
42662;SDS011;44330;51.360;6.686;2023-04-01T00:20:23;5.88;;;1.42;;
42662;SDS011;44330;51.360;6.686;2023-04-01T00:22:49;8.73;;;1.40;;
42662;SDS011;44330;51.360;6.686;2023-04-01T00:25:15;8.57;;;1.08;;
42662;SDS011;44330;51.360;6.686;2023-04-01T00:27:41;1.85;;;0.70;;
42662;SDS011;44330;51.360;6.686;2023-04-01T00:30:07;8.23;;;1.42;;
42662;SDS011;44330;51.360;6.686;2023-04-01T00:32:33;6.47;;;0.88;;
42662;SDS011;44330;51.360;6.686;2023-04-01T00:34:59;2.55;;;0.88;;
42662;SDS011;44330;51.360;6.686;2023-04-01T00:37:26;6.45;;;0.93;;
42662;SDS011;44330;51.360;6.686;2023-04-01T00:39:52;2.28;;;0.70;;
42662;SDS011;44330;51.360;6.686;2023-04-01T00:42:18;2.95;;;0.82;;
42662;SDS011;44330;51.360;6.686;2023-04-01T00:44:45;1.52;;;0.73;;
42662;SDS011;44330;51.360;6.686;2023-04-01T00:47:15;3.30;;;0.82;;
42662;SDS011;44330;51.360;6.686;2023-04-01T00:49:41;8.35;;;1.55;;
42662;SDS011;44330;51.360;6.686;2023-04-01T00:52:11;4.18;;;0.80;;
42662;SDS011;44330;51.360;6.686;2023-04-01T00:54:39;4.60;;;0.80;;
42662;SDS011;44330;51.360;6.686;2023-04-01T00:57:21;6.63;;;1.20;;
42662;SDS011;44330;51.360;6.686;2023-04-01T00:59:54;9.02;;;1.23;;
42662;SDS011;44330;51.360;6.686;2023-04-01T01:02:20;4.70;;;1.00;;
42662;SDS011;44330;51.360;6.686;2023-04-01T01:04:47;3.88;;;1.17;;
42662;SDS011;44330;51.360;6.686;2023-04-01T01:10:07;5.25;;;1.05;;
42662;SDS011;44330;51.360;6.686;2023-04-01T01:23:38;3.80;;;1.23;;
42662;SDS011;44330;51.360;6.686;2023-04-01T01:37:30;4.00;;;1.02;;
42662;SDS011;44330;51.360;6.686;2023-04-01T01:40:03;4.43;;;0.95;;
42662;SDS011;44330;51.360;6.686;2023-04-01T01:42:31;2.58;;;0.70;;
42662;SDS011;44330;51.360;6.686;2023-04-01T01:45:00;2.75;;;0.90;;
42662;SDS011;44330;51.360;6.686;2023-04-01T01:47:27;2.40;;;0.80;;
42662;SDS011;44330;51.360;6.686;2023-04-01T01:49:54;4.82;;;0.80;;
42662;SDS011;44330;51.360;6.686;2023-04-01T01:52:21;6.07;;;0.95;;
42662;SDS011;44330;51.360;6.686;2023-04-01T01:54:48;4.65;;;0.90;;
42662;SDS011;44330;51.360;6.686;2023-04-01T01:57:15;2.63;;;0.70;;
42662;SDS011;44330;51.360;6.686;2023-04-01T01:59:43;1.05;;;0.50;;
42662;SDS011;44330;51.360;6.686;2023-04-01T02:02:12;1.52;;;0.73;;
42662;SDS011;44330;51.360;6.686;2023-04-01T02:04:39;3.25;;;0.80;;
42662;SDS011;44330;51.360;6.686;2023-04-01T02:07:08;3.95;;;1.50;;
42662;SDS011;44330;51.360;6.686;2023-04-01T02:09:54;4.43;;;1.30;;
42662;SDS011;44330;51.360;6.686;2023-04-01T02:12:20;4.18;;;1.40;;
42662;SDS011;44330;51.360;6.686;2023-04-01T02:17:31;6.07;;;1.60;;
42662;SDS011;44330;51.360;6.686;2023-04-01T02:20:00;3.47;;;0.90;;
42662;SDS011;44330;51.360;6.686;2023-04-01T02:22:37;6.00;;;1.83;;
42662;SDS011;44330;51.360;6.686;2023-04-01T02:25:08;5.68;;;1.50;;
42662;SDS011;44330;51.360;6.686;2023-04-01T02:27:42;4.25;;;0.95;;
42662;SDS011;44330;51.360;6.686;2023-04-01T02:30:09;5.68;;;1.75;;
42662;SDS011;44330;51.360;6.686;2023-04-01T02:32:37;6.13;;;1.20;;
42662;SDS011;44330;51.360;6.686;2023-04-01T02:35:07;6.72;;;1.35;;
42662;SDS011;44330;51.360;6.686;2023-04-01T02:37:35;8.80;;;1.40;;
42662;SDS011;44330;51.360;6.686;2023-04-01T02:40:05;3.58;;;1.15;;
42662;SDS011;44330;51.360;6.686;2023-04-01T02:42:32;3.45;;;0.85;;
42662;SDS011;44330;51.360;6.686;2023-04-01T02:44:58;3.30;;;1.02;;
42662;SDS011;44330;51.360;6.686;2023-04-01T02:47:24;4.10;;;1.13;;
42662;SDS011;44330;51.360;6.686;2023-04-01T02:49:50;3.60;;;0.85;;
42662;SDS011;44330;51.360;6.686;2023-04-01T02:52:15;3.40;;;0.77;;
42662;SDS011;44330;51.360;6.686;2023-04-01T02:54:41;6.50;;;1.67;;
42662;SDS011;44330;51.360;6.686;2023-04-01T02:57:06;2.97;;;0.88;;
42662;SDS011;44330;51.360;6.686;2023-04-01T02:59:32;2.42;;;0.90;;
42662;SDS011;44330;51.360;6.686;2023-04-01T03:01:58;2.30;;;0.60;;
42662;SDS011;44330;51.360;6.686;2023-04-01T03:04:23;3.28;;;1.05;;
42662;SDS011;44330;51.360;6.686;2023-04-01T03:06:49;3.30;;;0.80;;
42662;SDS011;44330;51.360;6.686;2023-04-01T03:09:14;4.53;;;0.82;;
42662;SDS011;44330;51.360;6.686;2023-04-01T03:11:41;5.68;;;0.90;;
42662;SDS011;44330;51.360;6.686;2023-04-01T03:14:06;3.30;;;0.95;;
42662;SDS011;44330;51.360;6.686;2023-04-01T03:16:32;2.25;;;0.65;;
42662;SDS011;44330;51.360;6.686;2023-04-01T03:18:57;2.42;;;0.80;;
42662;SDS011;44330;51.360;6.686;2023-04-01T03:21:24;3.97;;;1.10;;
42662;SDS011;44330;51.360;6.686;2023-04-01T03:23:50;2.80;;;1.00;;
42662;SDS011;44330;51.360;6.686;2023-04-01T03:26:16;3.00;;;1.10;;
42662;SDS011;44330;51.360;6.686;2023-04-01T03:28:42;2.75;;;0.70;;
42662;SDS011;44330;51.360;6.686;2023-04-01T03:31:08;2.78;;;1.05;;
42662;SDS011;44330;51.360;6.686;2023-04-01T03:33:33;3.45;;;0.70;;
42662;SDS011;44330;51.360;6.686;2023-04-01T03:35:59;2.03;;;1.00;;
42662;SDS011;44330;51.360;6.686;2023-04-01T03:38:25;1.50;;;0.77;;
42662;SDS011;44330;51.360;6.686;2023-04-01T03:40:50;2.80;;;1.42;;
42662;SDS011;44330;51.360;6.686;2023-04-01T03:43:16;3.85;;;1.17;;
42662;SDS011;44330;51.360;6.686;2023-04-01T03:45:45;2.75;;;1.48;;
42662;SDS011;44330;51.360;6.686;2023-04-01T03:48:12;6.82;;;2.60;;
42662;SDS011;44330;51.360;6.686;2023-04-01T03:50:39;4.22;;;1.98;;
42662;SDS011;44330;51.360;6.686;2023-04-01T03:53:05;3.08;;;1.58;;
42662;SDS011;44330;51.360;6.686;2023-04-01T03:55:31;5.07;;;1.40;;
42662;SDS011;44330;51.360;6.686;2023-04-01T03:57:56;5.22;;;1.77;;
42662;SDS011;44330;51.360;6.686;2023-04-01T04:00:22;2.97;;;1.60;;
42662;SDS011;44330;51.360;6.686;2023-04-01T04:02:47;2.72;;;1.13;;
42662;SDS011;44330;51.360;6.686;2023-04-01T04:05:13;4.00;;;1.60;;
42662;SDS011;44330;51.360;6.686;2023-04-01T04:07:39;3.42;;;1.45;;
42662;SDS011;44330;51.360;6.686;2023-04-01T04:10:05;4.05;;;1.40;;
42662;SDS011;44330;51.360;6.686;2023-04-01T04:12:31;3.90;;;1.20;;
42662;SDS011;44330;51.360;6.686;2023-04-01T04:14:57;6.43;;;1.88;;
42662;SDS011;44330;51.360;6.686;2023-04-01T04:17:22;3.80;;;1.65;;
42662;SDS011;44330;51.360;6.686;2023-04-01T04:19:48;3.88;;;1.90;;
42662;SDS011;44330;51.360;6.686;2023-04-01T04:22:14;1.38;;;0.80;;
42662;SDS011;44330;51.360;6.686;2023-04-01T04:24:39;2.28;;;0.90;;
42662;SDS011;44330;51.360;6.686;2023-04-01T04:27:05;2.35;;;0.93;;
42662;SDS011;44330;51.360;6.686;2023-04-01T04:29:31;2.05;;;0.98;;
42662;SDS011;44330;51.360;6.686;2023-04-01T04:31:56;2.92;;;0.90;;
42662;SDS011;44330;51.360;6.686;2023-04-01T04:34:22;2.72;;;0.90;;
42662;SDS011;44330;51.360;6.686;2023-04-01T04:36:48;1.50;;;1.00;;
42662;SDS011;44330;51.360;6.686;2023-04-01T04:39:14;1.98;;;0.93;;
42662;SDS011;44330;51.360;6.686;2023-04-01T04:41:40;5.15;;;0.90;;
42662;SDS011;44330;51.360;6.686;2023-04-01T04:44:06;2.25;;;0.80;;
42662;SDS011;44330;51.360;6.686;2023-04-01T04:46:32;1.85;;;1.25;;
42662;SDS011;44330;51.360;6.686;2023-04-01T04:48:58;2.92;;;1.13;;
42662;SDS011;44330;51.360;6.686;2023-04-01T04:51:24;2.72;;;1.20;;
42662;SDS011;44330;51.360;6.686;2023-04-01T04:53:50;1.98;;;1.20;;
42662;SDS011;44330;51.360;6.686;2023-04-01T04:56:20;2.35;;;1.33;;
42662;SDS011;44330;51.360;6.686;2023-04-01T04:58:47;2.97;;;1.30;;
42662;SDS011;44330;51.360;6.686;2023-04-01T05:01:14;1.13;;;1.00;;
42662;SDS011;44330;51.360;6.686;2023-04-01T05:03:41;2.30;;;1.40;;
42662;SDS011;44330;51.360;6.686;2023-04-01T05:06:07;3.22;;;1.23;;
42662;SDS011;44330;51.360;6.686;2023-04-01T05:08:34;1.70;;;1.40;;
42662;SDS011;44330;51.360;6.686;2023-04-01T05:11:00;1.95;;;1.70;;
42662;SDS011;44330;51.360;6.686;2023-04-01T05:13:27;2.65;;;1.65;;
42662;SDS011;44330;51.360;6.686;2023-04-01T05:15:53;4.57;;;1.95;;
42662;SDS011;44330;51.360;6.686;2023-04-01T05:18:19;2.53;;;2.33;;
42662;SDS011;44330;51.360;6.686;2023-04-01T05:20:49;4.97;;;2.10;;
42662;SDS011;44330;51.360;6.686;2023-04-01T05:23:16;4.28;;;1.38;;
42662;SDS011;44330;51.360;6.686;2023-04-01T05:25:42;2.85;;;1.65;;
42662;SDS011;44330;51.360;6.686;2023-04-01T05:28:08;3.65;;;1.83;;
42662;SDS011;44330;51.360;6.686;2023-04-01T05:30:33;5.18;;;2.67;;
42662;SDS011;44330;51.360;6.686;2023-04-01T05:32:59;4.03;;;3.08;;
42662;SDS011;44330;51.360;6.686;2023-04-01T05:35:25;2.78;;;2.58;;
42662;SDS011;44330;51.360;6.686;2023-04-01T05:37:51;5.53;;;2.63;;
42662;SDS011;44330;51.360;6.686;2023-04-01T05:40:16;3.15;;;2.28;;
42662;SDS011;44330;51.360;6.686;2023-04-01T05:42:42;4.75;;;2.40;;
42662;SDS011;44330;51.360;6.686;2023-04-01T05:45:08;6.50;;;2.50;;
42662;SDS011;44330;51.360;6.686;2023-04-01T05:47:34;4.50;;;2.30;;
42662;SDS011;44330;51.360;6.686;2023-04-01T05:49:59;3.60;;;2.65;;
42662;SDS011;44330;51.360;6.686;2023-04-01T05:52:25;3.53;;;3.00;;
42662;SDS011;44330;51.360;6.686;2023-04-01T05:54:50;3.60;;;2.78;;
42662;SDS011;44330;51.360;6.686;2023-04-01T05:57:16;3.85;;;3.00;;
42662;SDS011;44330;51.360;6.686;2023-04-01T05:59:41;6.32;;;2.90;;
42662;SDS011;44330;51.360;6.686;2023-04-01T06:02:08;6.57;;;2.83;;
42662;SDS011;44330;51.360;6.686;2023-04-01T06:04:37;7.10;;;3.15;;
42662;SDS011;44330;51.360;6.686;2023-04-01T06:07:13;6.82;;;3.10;;
42662;SDS011;44330;51.360;6.686;2023-04-01T06:09:41;4.28;;;3.33;;
42662;SDS011;44330;51.360;6.686;2023-04-01T06:14:56;8.43;;;3.92;;
42662;SDS011;44330;51.360;6.686;2023-04-01T06:25:59;10.13;;;3.90;;
42662;SDS011;44330;51.360;6.686;2023-04-01T06:31:26;5.38;;;4.38;;
42662;SDS011;44330;51.360;6.686;2023-04-01T06:39:39;6.53;;;4.47;;
42662;SDS011;44330;51.360;6.686;2023-04-01T06:53:46;5.97;;;3.90;;
42662;SDS011;44330;51.360;6.686;2023-04-01T06:56:26;5.25;;;3.95;;
42662;SDS011;44330;51.360;6.686;2023-04-01T07:01:57;3.50;;;2.80;;
42662;SDS011;44330;51.360;6.686;2023-04-01T07:04:37;3.92;;;3.53;;
42662;SDS011;44330;51.360;6.686;2023-04-01T07:07:11;5.70;;;3.47;;
42662;SDS011;44330;51.360;6.686;2023-04-01T07:10:06;5.63;;;3.00;;
42662;SDS011;44330;51.360;6.686;2023-04-01T07:15:20;3.38;;;3.08;;
42662;SDS011;44330;51.360;6.686;2023-04-01T07:17:53;4.38;;;3.00;;
42662;SDS011;44330;51.360;6.686;2023-04-01T07:20:23;3.60;;;2.80;;
42662;SDS011;44330;51.360;6.686;2023-04-01T07:22:59;3.25;;;2.83;;
42662;SDS011;44330;51.360;6.686;2023-04-01T07:25:37;3.05;;;2.63;;
42662;SDS011;44330;51.360;6.686;2023-04-01T07:28:11;2.60;;;2.40;;
42662;SDS011;44330;51.360;6.686;2023-04-01T07:33:50;2.50;;;2.30;;
42662;SDS011;44330;51.360;6.686;2023-04-01T07:36:47;3.50;;;2.20;;
42662;SDS011;44330;51.360;6.686;2023-04-01T07:47:08;4.13;;;3.25;;
42662;SDS011;44330;51.360;6.686;2023-04-01T07:55:18;4.07;;;3.60;;
42662;SDS011;44330;51.360;6.686;2023-04-01T08:03:20;4.78;;;4.30;;
42662;SDS011;44330;51.360;6.686;2023-04-01T08:06:14;6.28;;;4.32;;
42662;SDS011;44330;51.360;6.686;2023-04-01T08:09:06;4.35;;;3.95;;
42662;SDS011;44330;51.360;6.686;2023-04-01T08:11:51;3.72;;;3.42;;
42662;SDS011;44330;51.360;6.686;2023-04-01T08:14:24;3.80;;;3.50;;
42662;SDS011;44330;51.360;6.686;2023-04-01T08:17:09;3.50;;;3.20;;
42662;SDS011;44330;51.360;6.686;2023-04-01T08:22:53;3.50;;;3.20;;
42662;SDS011;44330;51.360;6.686;2023-04-01T08:25:27;4.30;;;3.30;;
42662;SDS011;44330;51.360;6.686;2023-04-01T08:30:50;4.50;;;4.10;;
42662;SDS011;44330;51.360;6.686;2023-04-01T08:33:43;4.22;;;3.83;;
42662;SDS011;44330;51.360;6.686;2023-04-01T08:38:54;4.30;;;3.75;;
42662;SDS011;44330;51.360;6.686;2023-04-01T08:41:38;5.93;;;4.10;;
42662;SDS011;44330;51.360;6.686;2023-04-01T08:44:20;6.68;;;4.30;;
42662;SDS011;44330;51.360;6.686;2023-04-01T08:52:34;5.28;;;4.53;;
42662;SDS011;44330;51.360;6.686;2023-04-01T08:57:50;6.85;;;5.32;;
42662;SDS011;44330;51.360;6.686;2023-04-01T09:00:41;6.38;;;5.65;;
42662;SDS011;44330;51.360;6.686;2023-04-01T09:11:43;9.65;;;7.07;;
42662;SDS011;44330;51.360;6.686;2023-04-01T09:24:49;10.00;;;7.05;;
42662;SDS011;44330;51.360;6.686;2023-04-01T09:40:58;10.15;;;7.78;;
42662;SDS011;44330;51.360;6.686;2023-04-01T09:47:14;12.20;;;8.85;;
42662;SDS011;44330;51.360;6.686;2023-04-01T09:49:55;11.73;;;7.55;;
42662;SDS011;44330;51.360;6.686;2023-04-01T09:52:48;12.80;;;7.63;;
42662;SDS011;44330;51.360;6.686;2023-04-01T09:58:33;14.65;;;9.55;;
42662;SDS011;44330;51.360;6.686;2023-04-01T10:07:11;12.73;;;9.25;;
42662;SDS011;44330;51.360;6.686;2023-04-01T10:18:26;15.98;;;10.57;;
42662;SDS011;44330;51.360;6.686;2023-04-01T10:26:25;18.13;;;10.50;;
42662;SDS011;44330;51.360;6.686;2023-04-01T10:29:21;13.60;;;8.73;;
42662;SDS011;44330;51.360;6.686;2023-04-01T10:32:18;17.88;;;10.05;;
42662;SDS011;44330;51.360;6.686;2023-04-01T10:34:53;13.77;;;9.48;;
42662;SDS011;44330;51.360;6.686;2023-04-01T10:37:42;15.13;;;10.63;;
42662;SDS011;44330;51.360;6.686;2023-04-01T11:17:04;11.68;;;8.68;;
42662;SDS011;44330;51.360;6.686;2023-04-01T11:25:59;12.38;;;8.13;;
42662;SDS011;44330;51.360;6.686;2023-04-01T11:37:14;12.25;;;7.82;;
42662;SDS011;44330;51.360;6.686;2023-04-01T11:50:24;8.25;;;6.20;;
42662;SDS011;44330;51.360;6.686;2023-04-01T12:15:03;10.48;;;7.18;;
42662;SDS011;44330;51.360;6.686;2023-04-01T12:17:49;9.75;;;7.35;;
42662;SDS011;44330;51.360;6.686;2023-04-01T12:23:40;10.75;;;8.25;;
42662;SDS011;44330;51.360;6.686;2023-04-01T12:32:09;10.95;;;8.07;;
42662;SDS011;44330;51.360;6.686;2023-04-01T12:35:02;11.02;;;8.10;;
42662;SDS011;44330;51.360;6.686;2023-04-01T12:37:55;13.45;;;9.65;;
42662;SDS011;44330;51.360;6.686;2023-04-01T12:49:34;12.55;;;7.78;;
42662;SDS011;44330;51.360;6.686;2023-04-01T12:52:25;14.85;;;9.20;;
42662;SDS011;44330;51.360;6.686;2023-04-01T13:01:02;11.98;;;7.57;;
42662;SDS011;44330;51.360;6.686;2023-04-01T13:03:34;12.00;;;7.05;;
42662;SDS011;44330;51.360;6.686;2023-04-01T13:08:55;11.57;;;7.05;;
42662;SDS011;44330;51.360;6.686;2023-04-01T13:14:31;9.93;;;6.50;;
42662;SDS011;44330;51.360;6.686;2023-04-01T13:20:11;10.88;;;7.43;;
42662;SDS011;44330;51.360;6.686;2023-04-01T13:28:06;9.40;;;6.43;;
42662;SDS011;44330;51.360;6.686;2023-04-01T13:39:31;8.95;;;7.07;;
42662;SDS011;44330;51.360;6.686;2023-04-01T13:42:11;9.23;;;6.43;;
42662;SDS011;44330;51.360;6.686;2023-04-01T13:44:51;9.05;;;6.47;;
42662;SDS011;44330;51.360;6.686;2023-04-01T13:50:17;8.35;;;6.85;;
42662;SDS011;44330;51.360;6.686;2023-04-01T13:53:02;8.48;;;6.00;;
42662;SDS011;44330;51.360;6.686;2023-04-01T13:55:47;7.50;;;5.90;;
42662;SDS011;44330;51.360;6.686;2023-04-01T14:01:39;13.05;;;5.90;;
42662;SDS011;44330;51.360;6.686;2023-04-01T14:12:28;5.88;;;4.53;;
42662;SDS011;44330;51.360;6.686;2023-04-01T14:20:44;6.05;;;4.85;;
42662;SDS011;44330;51.360;6.686;2023-04-01T14:26:30;5.50;;;4.35;;
42662;SDS011;44330;51.360;6.686;2023-04-01T14:29:14;8.70;;;5.18;;
42662;SDS011;44330;51.360;6.686;2023-04-01T14:32:16;8.75;;;4.63;;
42662;SDS011;44330;51.360;6.686;2023-04-01T14:35:15;20.05;;;4.70;;
42662;SDS011;44330;51.360;6.686;2023-04-01T14:40:56;6.90;;;4.20;;
42662;SDS011;44330;51.360;6.686;2023-04-01T14:43:42;4.85;;;4.30;;
42662;SDS011;44330;51.360;6.686;2023-04-01T14:49:39;6.57;;;4.30;;
42662;SDS011;44330;51.360;6.686;2023-04-01T14:54:51;5.20;;;4.30;;
42662;SDS011;44330;51.360;6.686;2023-04-01T14:57:25;6.90;;;4.15;;
42662;SDS011;44330;51.360;6.686;2023-04-01T14:59:53;4.65;;;4.15;;
42662;SDS011;44330;51.360;6.686;2023-04-01T15:05:32;5.78;;;4.47;;
42662;SDS011;44330;51.360;6.686;2023-04-01T15:08:25;4.78;;;4.28;;
42662;SDS011;44330;51.360;6.686;2023-04-01T15:18:50;4.85;;;3.70;;
42662;SDS011;44330;51.360;6.686;2023-04-01T15:24:22;4.97;;;4.07;;
42662;SDS011;44330;51.360;6.686;2023-04-01T15:29:28;5.90;;;3.95;;
42662;SDS011;44330;51.360;6.686;2023-04-01T15:32:38;4.32;;;3.50;;
42662;SDS011;44330;51.360;6.686;2023-04-01T15:37:59;8.20;;;3.80;;
42662;SDS011;44330;51.360;6.686;2023-04-01T15:43:47;4.70;;;4.20;;
42662;SDS011;44330;51.360;6.686;2023-04-01T16:00:21;3.55;;;3.10;;
42662;SDS011;44330;51.360;6.686;2023-04-01T16:08:24;6.82;;;3.58;;
42662;SDS011;44330;51.360;6.686;2023-04-01T16:14:22;3.78;;;3.08;;
42662;SDS011;44330;51.360;6.686;2023-04-01T16:17:35;4.00;;;3.55;;
42662;SDS011;44330;51.360;6.686;2023-04-01T16:19:58;4.20;;;3.45;;
42662;SDS011;44330;51.360;6.686;2023-04-01T16:25:45;4.67;;;3.60;;
42662;SDS011;44330;51.360;6.686;2023-04-01T16:30:39;4.20;;;3.80;;
42662;SDS011;44330;51.360;6.686;2023-04-01T16:41:42;5.00;;;3.85;;
42662;SDS011;44330;51.360;6.686;2023-04-01T16:44:25;4.60;;;3.83;;
42662;SDS011;44330;51.360;6.686;2023-04-01T16:46:52;4.03;;;3.63;;
42662;SDS011;44330;51.360;6.686;2023-04-01T16:49:29;4.43;;;3.75;;
42662;SDS011;44330;51.360;6.686;2023-04-01T16:55:15;5.80;;;4.30;;
42662;SDS011;44330;51.360;6.686;2023-04-01T17:01:04;4.40;;;3.80;;
42662;SDS011;44330;51.360;6.686;2023-04-01T17:03:44;6.65;;;3.95;;
42662;SDS011;44330;51.360;6.686;2023-04-01T17:06:13;6.18;;;4.57;;
42662;SDS011;44330;51.360;6.686;2023-04-01T17:11:44;6.28;;;5.28;;
42662;SDS011;44330;51.360;6.686;2023-04-01T17:19:41;14.73;;;10.05;;
42662;SDS011;44330;51.360;6.686;2023-04-01T17:22:27;9.30;;;6.70;;
42662;SDS011;44330;51.360;6.686;2023-04-01T17:25:20;6.68;;;5.53;;
42662;SDS011;44330;51.360;6.686;2023-04-01T17:27:57;5.55;;;4.75;;
42662;SDS011;44330;51.360;6.686;2023-04-01T17:30:45;7.13;;;5.50;;
42662;SDS011;44330;51.360;6.686;2023-04-01T17:36:09;6.07;;;5.47;;
42662;SDS011;44330;51.360;6.686;2023-04-01T17:41:50;9.50;;;6.55;;
42662;SDS011;44330;51.360;6.686;2023-04-01T17:44:38;7.13;;;5.93;;
42662;SDS011;44330;51.360;6.686;2023-04-01T17:47:36;7.40;;;6.53;;
42662;SDS011;44330;51.360;6.686;2023-04-01T17:53:21;7.97;;;6.78;;
42662;SDS011;44330;51.360;6.686;2023-04-01T17:58:45;8.27;;;7.00;;
42662;SDS011;44330;51.360;6.686;2023-04-01T18:07:22;8.60;;;6.43;;
42662;SDS011;44330;51.360;6.686;2023-04-01T18:15:27;7.15;;;6.45;;
42662;SDS011;44330;51.360;6.686;2023-04-01T18:18:32;9.20;;;7.05;;
42662;SDS011;44330;51.360;6.686;2023-04-01T18:21:14;8.88;;;7.10;;
42662;SDS011;44330;51.360;6.686;2023-04-01T18:32:44;10.93;;;7.38;;
42662;SDS011;44330;51.360;6.686;2023-04-01T18:40:36;10.65;;;7.70;;
42662;SDS011;44330;51.360;6.686;2023-04-01T18:57:16;12.43;;;9.13;;
42662;SDS011;44330;51.360;6.686;2023-04-01T18:59:45;9.20;;;7.88;;
42662;SDS011;44330;51.360;6.686;2023-04-01T19:02:19;10.32;;;8.65;;
42662;SDS011;44330;51.360;6.686;2023-04-01T19:05:00;11.20;;;8.63;;
42662;SDS011;44330;51.360;6.686;2023-04-01T19:12:43;5.60;;;5.05;;
42662;SDS011;44330;51.360;6.686;2023-04-01T19:26:10;7.97;;;6.25;;
42662;SDS011;44330;51.360;6.686;2023-04-01T19:31:19;8.68;;;6.55;;
42662;SDS011;44330;51.360;6.686;2023-04-01T19:34:29;9.10;;;6.80;;
42662;SDS011;44330;51.360;6.686;2023-04-01T19:43:00;17.40;;;10.05;;
42662;SDS011;44330;51.360;6.686;2023-04-01T19:54:28;11.18;;;7.22;;
42662;SDS011;44330;51.360;6.686;2023-04-01T19:57:02;10.20;;;6.70;;
42662;SDS011;44330;51.360;6.686;2023-04-01T19:59:36;8.07;;;6.38;;
42662;SDS011;44330;51.360;6.686;2023-04-01T20:04:44;6.30;;;5.03;;
42662;SDS011;44330;51.360;6.686;2023-04-01T20:09:58;6.40;;;4.63;;
42662;SDS011;44330;51.360;6.686;2023-04-01T20:15:31;6.40;;;4.20;;
42662;SDS011;44330;51.360;6.686;2023-04-01T20:18:14;5.03;;;4.10;;
42662;SDS011;44330;51.360;6.686;2023-04-01T20:20:57;6.40;;;3.80;;
42662;SDS011;44330;51.360;6.686;2023-04-01T20:23:41;4.80;;;3.67;;
42662;SDS011;44330;51.360;6.686;2023-04-01T20:26:21;20.10;;;10.15;;
42662;SDS011;44330;51.360;6.686;2023-04-01T20:31:59;30.17;;;16.23;;
42662;SDS011;44330;51.360;6.686;2023-04-01T20:42:47;14.23;;;8.60;;
42662;SDS011;44330;51.360;6.686;2023-04-01T20:51:24;10.15;;;7.07;;
42662;SDS011;44330;51.360;6.686;2023-04-01T21:05:30;10.52;;;6.05;;
42662;SDS011;44330;51.360;6.686;2023-04-01T21:08:22;7.18;;;5.90;;
42662;SDS011;44330;51.360;6.686;2023-04-01T21:19:36;5.65;;;4.05;;
42662;SDS011;44330;51.360;6.686;2023-04-01T21:22:27;10.20;;;5.30;;
42662;SDS011;44330;51.360;6.686;2023-04-01T21:30:33;12.13;;;6.07;;
42662;SDS011;44330;51.360;6.686;2023-04-01T21:56:37;7.28;;;4.95;;
42662;SDS011;44330;51.360;6.686;2023-04-01T21:59:29;8.75;;;4.68;;
42662;SDS011;44330;51.360;6.686;2023-04-01T22:02:16;8.20;;;3.85;;
42662;SDS011;44330;51.360;6.686;2023-04-01T22:05:21;4.38;;;3.30;;
42662;SDS011;44330;51.360;6.686;2023-04-01T22:07:54;6.55;;;4.50;;
42662;SDS011;44330;51.360;6.686;2023-04-01T22:15:45;7.22;;;4.70;;
42662;SDS011;44330;51.360;6.686;2023-04-01T22:18:33;5.88;;;3.90;;
42662;SDS011;44330;51.360;6.686;2023-04-01T22:21:05;7.43;;;4.80;;
42662;SDS011;44330;51.360;6.686;2023-04-01T22:23:59;10.02;;;5.45;;
42662;SDS011;44330;51.360;6.686;2023-04-01T22:34:34;7.07;;;5.13;;
42662;SDS011;44330;51.360;6.686;2023-04-01T22:42:51;13.10;;;7.80;;
42662;SDS011;44330;51.360;6.686;2023-04-01T22:48:20;11.57;;;7.90;;
42662;SDS011;44330;51.360;6.686;2023-04-01T22:51:01;12.07;;;7.07;;
42662;SDS011;44330;51.360;6.686;2023-04-01T22:53:51;13.60;;;6.70;;
42662;SDS011;44330;51.360;6.686;2023-04-01T22:56:43;7.35;;;5.90;;
42662;SDS011;44330;51.360;6.686;2023-04-01T23:01:54;9.25;;;7.38;;
42662;SDS011;44330;51.360;6.686;2023-04-01T23:04:26;12.30;;;7.60;;
42662;SDS011;44330;51.360;6.686;2023-04-01T23:06:57;15.25;;;9.35;;
42662;SDS011;44330;51.360;6.686;2023-04-01T23:09:31;14.50;;;9.73;;
42662;SDS011;44330;51.360;6.686;2023-04-01T23:12:00;13.40;;;8.85;;
42662;SDS011;44330;51.360;6.686;2023-04-01T23:33:38;7.57;;;6.63;;
42662;SDS011;44330;51.360;6.686;2023-04-01T23:38:34;13.38;;;7.75;;
42662;SDS011;44330;51.360;6.686;2023-04-01T23:41:03;11.82;;;7.68;;
42662;SDS011;44330;51.360;6.686;2023-04-01T23:43:31;13.43;;;6.90;;
42662;SDS011;44330;51.360;6.686;2023-04-01T23:46:00;16.92;;;8.65;;
42662;SDS011;44330;51.360;6.686;2023-04-01T23:48:32;16.02;;;9.45;;
42662;SDS011;44330;51.360;6.686;2023-04-01T23:51:01;14.05;;;7.80;;
42662;SDS011;44330;51.360;6.686;2023-04-01T23:53:33;13.18;;;8.10;;
42662;SDS011;44330;51.360;6.686;2023-04-01T23:55:59;15.60;;;7.80;;
42662;SDS011;44330;51.360;6.686;2023-04-01T23:58:44;14.90;;;5.93;;
